UAL2166 KORD-KEWR
Flight info
| Callsign | UAL2166 |
|---|---|
| Flight time | 1h 32m |
| Altitude | 39000 |
| Route | DUFEE ELX HAAKK DOXXY SOSIC KEEHO J584 SLT FQM3 |
| Aircraft | B77W/H-SDE1E2E3FGHIJ2J3J4J5M1RWXY/LB1D1 |
Departure
| Time | 2026-05-04 19:23 |
|---|---|
| Airport | Chicago O'Hare International Airport (KORD) |
Arrival
| Time | 2026-05-04 20:56 |
|---|---|
| Airport | Newark Liberty International Airport (KEWR) |
| Time | Latitude | Longitude | Altitude | Speed | Heading |
|---|---|---|---|---|---|
| 2026-05-04 18:58 | 41.98186 | -87.90665 | 681 ft | 0 kts | 155° |
| 2026-05-04 19:04 | 41.98190 | -87.90666 | 681 ft | 2 kts | 155° |
| 2026-05-04 19:04 | 41.98203 | -87.90675 | 681 ft | 2 kts | 155° |
| 2026-05-04 19:05 | 41.98217 | -87.90683 | 681 ft | 2 kts | 155° |
| 2026-05-04 19:05 | 41.98230 | -87.90691 | 681 ft | 2 kts | 163° |
| 2026-05-04 19:05 | 41.98245 | -87.90694 | 680 ft | 2 kts | 187° |
| 2026-05-04 19:05 | 41.98260 | -87.90688 | 681 ft | 2 kts | 205° |
| 2026-05-04 19:06 | 41.98272 | -87.90678 | 681 ft | 2 kts | 224° |
| 2026-05-04 19:06 | 41.98282 | -87.90662 | 681 ft | 2 kts | 242° |
| 2026-05-04 19:06 | 41.98287 | -87.90643 | 681 ft | 2 kts | 261° |
| 2026-05-04 19:06 | 41.98288 | -87.90633 | 681 ft | 1 kts | 271° |
| 2026-05-04 19:07 | 41.98288 | -87.90629 | 681 ft | 0 kts | 271° |
| 2026-05-04 19:14 | 41.98288 | -87.90631 | 680 ft | 1 kts | 270° |
| 2026-05-04 19:14 | 41.98288 | -87.90656 | 680 ft | 4 kts | 270° |
| 2026-05-04 19:15 | 41.98288 | -87.90708 | 680 ft | 6 kts | 270° |
| 2026-05-04 19:15 | 41.98288 | -87.90783 | 680 ft | 9 kts | 269° |
| 2026-05-04 19:15 | 41.98286 | -87.90915 | 680 ft | 12 kts | 269° |
| 2026-05-04 19:15 | 41.98280 | -87.90991 | 681 ft | 12 kts | 249° |
| 2026-05-04 19:16 | 41.98234 | -87.91098 | 681 ft | 13 kts | 233° |
| 2026-05-04 19:16 | 41.98167 | -87.91197 | 681 ft | 14 kts | 219° |
| 2026-05-04 19:16 | 41.98076 | -87.91274 | 681 ft | 16 kts | 209° |
| 2026-05-04 19:16 | 41.97978 | -87.91361 | 681 ft | 17 kts | 216° |
| 2026-05-04 19:17 | 41.97869 | -87.91370 | 681 ft | 16 kts | 176° |
| 2026-05-04 19:17 | 41.97752 | -87.91394 | 681 ft | 17 kts | 190° |
| 2026-05-04 19:17 | 41.97633 | -87.91421 | 681 ft | 14 kts | 209° |
| 2026-05-04 19:17 | 41.97541 | -87.91479 | 681 ft | 15 kts | 176° |
| 2026-05-04 19:18 | 41.97432 | -87.91457 | 681 ft | 16 kts | 173° |
| 2026-05-04 19:18 | 41.97319 | -87.91477 | 681 ft | 16 kts | 195° |
| 2026-05-04 19:18 | 41.97199 | -87.91489 | 681 ft | 16 kts | 170° |
| 2026-05-04 19:18 | 41.97160 | -87.91362 | 681 ft | 17 kts | 93° |
| 2026-05-04 19:19 | 41.97155 | -87.91190 | 681 ft | 19 kts | 90° |
| 2026-05-04 19:19 | 41.97155 | -87.91002 | 681 ft | 21 kts | 89° |
| 2026-05-04 19:19 | 41.97154 | -87.90794 | 681 ft | 23 kts | 92° |
| 2026-05-04 19:19 | 41.97145 | -87.90571 | 680 ft | 23 kts | 92° |
| 2026-05-04 19:20 | 41.97081 | -87.90489 | 680 ft | 13 kts | 166° |
| 2026-05-04 19:20 | 41.97041 | -87.90389 | 681 ft | 14 kts | 92° |
| 2026-05-04 19:20 | 41.97037 | -87.90241 | 680 ft | 17 kts | 90° |
| 2026-05-04 19:20 | 41.97037 | -87.90070 | 680 ft | 19 kts | 90° |
| 2026-05-04 19:21 | 41.97037 | -87.90005 | 681 ft | 3 kts | 89° |
| 2026-05-04 19:21 | 41.97038 | -87.89901 | 680 ft | 18 kts | 89° |
| 2026-05-04 19:21 | 41.97039 | -87.89682 | 680 ft | 24 kts | 92° |
| 2026-05-04 19:21 | 41.96945 | -87.89558 | 680 ft | 18 kts | 175° |
| 2026-05-04 19:22 | 41.96905 | -87.89600 | 680 ft | 6 kts | 266° |
| 2026-05-04 19:22 | 41.96903 | -87.89690 | 681 ft | 16 kts | 268° |
| 2026-05-04 19:22 | 41.96899 | -87.90121 | 681 ft | 82 kts | 269° |
| 2026-05-04 19:22 | 41.96896 | -87.91219 | 686 ft | 147 kts | 267° |
| 2026-05-04 19:23 | 41.96904 | -87.91925 | 861 ft | 159 kts | 267° |
| 2026-05-04 19:23 | 41.96972 | -87.93726 | 1928 ft | 153 kts | 269° |
| 2026-05-04 19:23 | 41.97038 | -87.95185 | 2519 ft | 162 kts | 269° |
| 2026-05-04 19:23 | 41.97089 | -87.96738 | 3208 ft | 170 kts | 269° |
| 2026-05-04 19:24 | 41.97126 | -87.98402 | 3658 ft | 186 kts | 269° |
| 2026-05-04 19:24 | 41.97155 | -88.00230 | 4114 ft | 203 kts | 269° |
| 2026-05-04 19:24 | 41.97183 | -88.02192 | 4610 ft | 219 kts | 269° |
| 2026-05-04 19:24 | 41.97433 | -88.04305 | 5072 ft | 239 kts | 290° |
| 2026-05-04 19:25 | 41.98216 | -88.06361 | 5616 ft | 256 kts | 296° |
| 2026-05-04 19:25 | 41.99100 | -88.08485 | 6383 ft | 262 kts | 296° |
| 2026-05-04 19:25 | 42.00106 | -88.10506 | 7250 ft | 267 kts | 311° |
| 2026-05-04 19:25 | 42.01687 | -88.11826 | 8058 ft | 279 kts | 337° |
| 2026-05-04 19:26 | 42.03676 | -88.12076 | 8864 ft | 294 kts | 3° |
| 2026-05-04 19:26 | 42.05661 | -88.11093 | 9636 ft | 308 kts | 29° |
| 2026-05-04 19:26 | 42.07204 | -88.09001 | 10290 ft | 324 kts | 56° |
| 2026-05-04 19:26 | 42.07985 | -88.06091 | 10631 ft | 347 kts | 82° |
| 2026-05-04 19:27 | 42.08192 | -88.02777 | 11029 ft | 366 kts | 87° |
| 2026-05-04 19:27 | 42.08323 | -87.99264 | 11547 ft | 382 kts | 87° |
| 2026-05-04 19:27 | 42.08453 | -87.95612 | 12077 ft | 399 kts | 88° |
| 2026-05-04 19:27 | 42.08586 | -87.91794 | 12686 ft | 415 kts | 87° |
| 2026-05-04 19:28 | 42.08720 | -87.87917 | 13485 ft | 425 kts | 87° |
| 2026-05-04 19:28 | 42.08860 | -87.83846 | 14508 ft | 432 kts | 87° |
| 2026-05-04 19:28 | 42.08997 | -87.79820 | 15605 ft | 437 kts | 87° |
| 2026-05-04 19:28 | 42.09134 | -87.75747 | 16670 ft | 443 kts | 87° |
| 2026-05-04 19:29 | 42.09272 | -87.71595 | 17640 ft | 451 kts | 87° |
| 2026-05-04 19:29 | 42.09412 | -87.67326 | 18630 ft | 458 kts | 87° |
| 2026-05-04 19:29 | 42.09551 | -87.63068 | 19636 ft | 464 kts | 87° |
| 2026-05-04 19:29 | 42.09691 | -87.58709 | 20631 ft | 470 kts | 86° |
| 2026-05-04 19:30 | 42.09830 | -87.54343 | 21626 ft | 475 kts | 86° |
| 2026-05-04 19:30 | 42.09970 | -87.49890 | 22585 ft | 481 kts | 86° |
| 2026-05-04 19:30 | 42.10110 | -87.45380 | 23497 ft | 487 kts | 86° |
| 2026-05-04 19:30 | 42.10250 | -87.40826 | 24388 ft | 492 kts | 86° |
| 2026-05-04 19:31 | 42.10389 | -87.36222 | 25273 ft | 497 kts | 86° |
| 2026-05-04 19:31 | 42.10529 | -87.31530 | 26043 ft | 504 kts | 87° |
| 2026-05-04 19:31 | 42.10668 | -87.26799 | 26803 ft | 509 kts | 87° |
| 2026-05-04 19:31 | 42.10806 | -87.22060 | 27570 ft | 515 kts | 87° |
| 2026-05-04 19:32 | 42.10944 | -87.17221 | 28345 ft | 520 kts | 87° |
| 2026-05-04 19:32 | 42.11081 | -87.12350 | 29154 ft | 523 kts | 86° |
| 2026-05-04 19:32 | 42.11215 | -87.07502 | 30098 ft | 523 kts | 86° |
| 2026-05-04 19:32 | 42.11366 | -87.02667 | 31214 ft | 518 kts | 86° |
| 2026-05-04 19:33 | 42.11549 | -86.97845 | 32259 ft | 513 kts | 85° |
| 2026-05-04 19:33 | 42.11729 | -86.93081 | 33108 ft | 510 kts | 85° |
| 2026-05-04 19:33 | 42.11910 | -86.88264 | 33839 ft | 510 kts | 86° |
| 2026-05-04 19:33 | 42.12088 | -86.83420 | 34503 ft | 510 kts | 85° |
| 2026-05-04 19:34 | 42.12262 | -86.78629 | 35143 ft | 508 kts | 85° |
| 2026-05-04 19:34 | 42.12429 | -86.73947 | 35677 ft | 506 kts | 85° |
| 2026-05-04 19:34 | 42.12597 | -86.69212 | 36135 ft | 506 kts | 85° |
| 2026-05-04 19:34 | 42.12763 | -86.64432 | 36525 ft | 507 kts | 85° |
| 2026-05-04 19:35 | 42.12925 | -86.59710 | 36630 ft | 510 kts | 85° |
| 2026-05-04 19:35 | 42.13245 | -86.50194 | 36647 ft | 507 kts | 85° |
| 2026-05-04 19:36 | 42.13556 | -86.40713 | 36647 ft | 507 kts | 85° |
| 2026-05-04 19:36 | 42.13859 | -86.31228 | 36647 ft | 507 kts | 86° |
| 2026-05-04 19:37 | 42.14154 | -86.21741 | 36646 ft | 507 kts | 86° |
| 2026-05-04 19:37 | 42.14439 | -86.12322 | 36650 ft | 508 kts | 86° |
| 2026-05-04 19:38 | 42.14451 | -86.02846 | 36653 ft | 507 kts | 90° |
| 2026-05-04 19:38 | 42.14359 | -85.93409 | 36661 ft | 507 kts | 89° |
| 2026-05-04 19:39 | 42.14271 | -85.83869 | 36659 ft | 506 kts | 89° |
| 2026-05-04 19:39 | 42.14184 | -85.74443 | 36662 ft | 507 kts | 89° |
| 2026-05-04 19:40 | 42.14092 | -85.64956 | 36663 ft | 507 kts | 89° |
| 2026-05-04 19:40 | 42.13996 | -85.55534 | 36658 ft | 506 kts | 89° |
| 2026-05-04 19:41 | 42.13893 | -85.46095 | 36658 ft | 506 kts | 89° |
| 2026-05-04 19:41 | 42.13782 | -85.36606 | 36669 ft | 506 kts | 89° |
| 2026-05-04 19:42 | 42.13664 | -85.27155 | 36665 ft | 505 kts | 90° |
| 2026-05-04 19:42 | 42.13539 | -85.17748 | 36666 ft | 506 kts | 90° |
| 2026-05-04 19:43 | 42.13405 | -85.08229 | 36667 ft | 506 kts | 90° |
| 2026-05-04 19:43 | 42.13260 | -84.98829 | 36673 ft | 506 kts | 90° |
| 2026-05-04 19:44 | 42.13090 | -84.89330 | 36673 ft | 507 kts | 90° |
| 2026-05-04 19:44 | 42.12914 | -84.79885 | 36669 ft | 506 kts | 90° |
| 2026-05-04 19:45 | 42.12730 | -84.70443 | 36659 ft | 506 kts | 90° |
| 2026-05-04 19:45 | 42.12540 | -84.61011 | 36668 ft | 506 kts | 90° |
| 2026-05-04 19:46 | 42.12339 | -84.51483 | 36674 ft | 504 kts | 90° |
| 2026-05-04 19:46 | 42.12823 | -84.42117 | 36675 ft | 504 kts | 79° |
| 2026-05-04 19:47 | 42.13881 | -84.32776 | 36663 ft | 505 kts | 79° |
| 2026-05-04 19:47 | 42.14928 | -84.23480 | 36668 ft | 504 kts | 79° |
| 2026-05-04 19:48 | 42.15968 | -84.14146 | 36672 ft | 502 kts | 79° |
| 2026-05-04 19:48 | 42.17001 | -84.04786 | 36678 ft | 504 kts | 79° |
| 2026-05-04 19:49 | 42.18020 | -83.95475 | 36671 ft | 504 kts | 79° |
| 2026-05-04 19:49 | 42.19038 | -83.86099 | 36678 ft | 504 kts | 79° |
| 2026-05-04 19:50 | 42.20041 | -83.76776 | 36675 ft | 503 kts | 79° |
| 2026-05-04 19:50 | 42.21029 | -83.67522 | 36698 ft | 502 kts | 79° |
| 2026-05-04 19:51 | 42.22014 | -83.58225 | 36696 ft | 503 kts | 79° |
| 2026-05-04 19:51 | 42.22502 | -83.48859 | 36691 ft | 504 kts | 93° |
| 2026-05-04 19:52 | 42.21223 | -83.39561 | 36680 ft | 508 kts | 103° |
| 2026-05-04 19:52 | 42.19562 | -83.30305 | 36681 ft | 507 kts | 103° |
| 2026-05-04 19:53 | 42.17888 | -83.21075 | 36685 ft | 506 kts | 104° |
| 2026-05-04 19:53 | 42.16219 | -83.11942 | 36686 ft | 505 kts | 103° |
| 2026-05-04 19:54 | 42.14541 | -83.02811 | 36697 ft | 504 kts | 103° |
| 2026-05-04 19:54 | 42.12849 | -82.93650 | 36695 ft | 504 kts | 103° |
| 2026-05-04 19:55 | 42.11149 | -82.84499 | 36693 ft | 505 kts | 103° |
| 2026-05-04 19:55 | 42.09443 | -82.75358 | 36694 ft | 504 kts | 103° |
| 2026-05-04 19:56 | 42.07724 | -82.66194 | 36692 ft | 506 kts | 103° |
| 2026-05-04 19:56 | 42.06000 | -82.57048 | 36705 ft | 505 kts | 103° |
| 2026-05-04 19:57 | 42.04276 | -82.47944 | 36698 ft | 505 kts | 103° |
| 2026-05-04 19:57 | 42.02537 | -82.38805 | 36718 ft | 504 kts | 103° |
| 2026-05-04 19:58 | 42.00800 | -82.29716 | 36712 ft | 503 kts | 104° |
| 2026-05-04 19:58 | 41.99055 | -82.20629 | 36710 ft | 504 kts | 104° |
| 2026-05-04 19:59 | 41.97300 | -82.11536 | 36718 ft | 504 kts | 104° |
| 2026-05-04 19:59 | 41.95547 | -82.02492 | 36712 ft | 504 kts | 104° |
| 2026-05-04 20:00 | 41.93780 | -81.93423 | 36729 ft | 503 kts | 104° |
| 2026-05-04 20:00 | 41.91774 | -81.82835 | 36714 ft | 503 kts | 98° |
| 2026-05-04 20:01 | 41.91017 | -81.75055 | 36707 ft | 503 kts | 95° |
| 2026-05-04 20:01 | 41.90208 | -81.65742 | 36713 ft | 504 kts | 95° |
| 2026-05-04 20:02 | 41.89385 | -81.56438 | 36721 ft | 503 kts | 95° |
| 2026-05-04 20:02 | 41.88553 | -81.47161 | 36726 ft | 503 kts | 95° |
| 2026-05-04 20:03 | 41.87714 | -81.37920 | 36732 ft | 502 kts | 95° |
| 2026-05-04 20:03 | 41.86861 | -81.28624 | 36735 ft | 502 kts | 96° |
| 2026-05-04 20:04 | 41.86001 | -81.19348 | 36718 ft | 503 kts | 95° |
| 2026-05-04 20:04 | 41.85138 | -81.10118 | 36728 ft | 501 kts | 96° |
| 2026-05-04 20:05 | 41.84262 | -81.00832 | 36747 ft | 502 kts | 95° |
| 2026-05-04 20:05 | 41.83377 | -80.91539 | 36748 ft | 502 kts | 95° |
| 2026-05-04 20:06 | 41.82494 | -80.82353 | 36757 ft | 503 kts | 95° |
| 2026-05-04 20:06 | 41.81590 | -80.73023 | 36769 ft | 502 kts | 95° |
| 2026-05-04 20:07 | 41.80682 | -80.63732 | 36772 ft | 504 kts | 95° |
| 2026-05-04 20:07 | 41.79773 | -80.54505 | 36771 ft | 503 kts | 95° |
| 2026-05-04 20:08 | 41.78854 | -80.45264 | 36767 ft | 502 kts | 95° |
| 2026-05-04 20:08 | 41.77926 | -80.36009 | 36772 ft | 503 kts | 95° |
| 2026-05-04 20:09 | 41.76987 | -80.26722 | 36777 ft | 502 kts | 96° |
| 2026-05-04 20:09 | 41.76040 | -80.17421 | 36773 ft | 502 kts | 96° |
| 2026-05-04 20:10 | 41.75089 | -80.08174 | 36782 ft | 504 kts | 96° |
| 2026-05-04 20:10 | 41.74132 | -79.98936 | 36787 ft | 502 kts | 95° |
| 2026-05-04 20:11 | 41.73168 | -79.89706 | 36788 ft | 501 kts | 96° |
| 2026-05-04 20:11 | 41.72197 | -79.80479 | 36790 ft | 502 kts | 96° |
| 2026-05-04 20:12 | 41.71223 | -79.71297 | 36797 ft | 502 kts | 96° |
| 2026-05-04 20:12 | 41.70229 | -79.61998 | 36801 ft | 503 kts | 95° |
| 2026-05-04 20:13 | 41.69229 | -79.52715 | 36800 ft | 502 kts | 95° |
| 2026-05-04 20:13 | 41.68232 | -79.43539 | 36806 ft | 502 kts | 95° |
| 2026-05-04 20:14 | 41.67225 | -79.34333 | 36812 ft | 503 kts | 96° |
| 2026-05-04 20:14 | 41.66206 | -79.25096 | 36810 ft | 501 kts | 96° |
| 2026-05-04 20:15 | 41.65183 | -79.15883 | 36811 ft | 502 kts | 96° |
| 2026-05-04 20:15 | 41.64154 | -79.06707 | 36814 ft | 500 kts | 96° |
| 2026-05-04 20:16 | 41.63116 | -78.97503 | 36818 ft | 500 kts | 96° |
| 2026-05-04 20:16 | 41.62075 | -78.88349 | 36822 ft | 500 kts | 96° |
| 2026-05-04 20:17 | 41.61028 | -78.79198 | 36823 ft | 501 kts | 96° |
| 2026-05-04 20:17 | 41.59969 | -78.70016 | 36826 ft | 499 kts | 96° |
| 2026-05-04 20:18 | 41.58907 | -78.60880 | 36827 ft | 501 kts | 96° |
| 2026-05-04 20:18 | 41.57836 | -78.51727 | 36828 ft | 501 kts | 96° |
| 2026-05-04 20:19 | 41.56751 | -78.42516 | 36831 ft | 500 kts | 96° |
| 2026-05-04 20:19 | 41.55666 | -78.33371 | 36826 ft | 500 kts | 96° |
| 2026-05-04 20:20 | 41.54576 | -78.24247 | 36822 ft | 500 kts | 96° |
| 2026-05-04 20:20 | 41.53480 | -78.15141 | 36830 ft | 499 kts | 96° |
| 2026-05-04 20:21 | 41.52366 | -78.05949 | 36824 ft | 500 kts | 96° |
| 2026-05-04 20:21 | 41.50645 | -77.92278 | 36832 ft | 500 kts | 98° |
| 2026-05-04 20:22 | 41.49355 | -77.83225 | 36833 ft | 499 kts | 98° |
| 2026-05-04 20:22 | 41.48056 | -77.74133 | 36834 ft | 501 kts | 97° |
| 2026-05-04 20:23 | 41.46758 | -77.65078 | 36840 ft | 500 kts | 97° |
| 2026-05-04 20:23 | 41.45447 | -77.55965 | 36834 ft | 501 kts | 97° |
| 2026-05-04 20:24 | 41.44133 | -77.46880 | 36842 ft | 499 kts | 97° |
| 2026-05-04 20:24 | 41.42820 | -77.37849 | 36823 ft | 496 kts | 97° |
| 2026-05-04 20:25 | 41.42167 | -77.33377 | 36670 ft | 494 kts | 98° |
| 2026-05-04 20:25 | 41.41505 | -77.28848 | 36385 ft | 497 kts | 98° |
| 2026-05-04 20:25 | 41.40845 | -77.24354 | 36127 ft | 499 kts | 98° |
| 2026-05-04 20:25 | 41.40181 | -77.19838 | 35972 ft | 498 kts | 98° |
| 2026-05-04 20:26 | 41.39521 | -77.15369 | 35819 ft | 496 kts | 97° |
| 2026-05-04 20:26 | 41.38845 | -77.10800 | 35626 ft | 495 kts | 97° |
| 2026-05-04 20:26 | 41.38187 | -77.06367 | 35405 ft | 495 kts | 97° |
| 2026-05-04 20:26 | 41.37518 | -77.01872 | 35172 ft | 496 kts | 97° |
| 2026-05-04 20:27 | 41.36840 | -76.97327 | 34898 ft | 495 kts | 97° |
| 2026-05-04 20:27 | 41.36172 | -76.92870 | 34128 ft | 496 kts | 97° |
| 2026-05-04 20:27 | 41.35498 | -76.88374 | 33195 ft | 500 kts | 98° |
| 2026-05-04 20:27 | 41.34816 | -76.83834 | 32275 ft | 503 kts | 98° |
| 2026-05-04 20:28 | 41.34116 | -76.79250 | 31347 ft | 507 kts | 101° |
| 2026-05-04 20:28 | 41.33125 | -76.74783 | 30456 ft | 511 kts | 107° |
| 2026-05-04 20:28 | 41.31957 | -76.70348 | 29915 ft | 505 kts | 108° |
| 2026-05-04 20:28 | 41.30792 | -76.65979 | 29402 ft | 499 kts | 108° |
| 2026-05-04 20:29 | 41.29635 | -76.61655 | 28836 ft | 495 kts | 108° |
| 2026-05-04 20:29 | 41.28499 | -76.57419 | 28254 ft | 491 kts | 108° |
| 2026-05-04 20:29 | 41.27351 | -76.53142 | 27662 ft | 487 kts | 108° |
| 2026-05-04 20:29 | 41.26234 | -76.48985 | 27083 ft | 484 kts | 108° |
| 2026-05-04 20:30 | 41.25095 | -76.44754 | 26484 ft | 480 kts | 108° |
| 2026-05-04 20:30 | 41.23988 | -76.40647 | 25905 ft | 476 kts | 108° |
| 2026-05-04 20:30 | 41.22872 | -76.36516 | 25305 ft | 473 kts | 109° |
| 2026-05-04 20:30 | 41.21765 | -76.32424 | 24678 ft | 470 kts | 110° |
| 2026-05-04 20:31 | 41.20657 | -76.28334 | 24067 ft | 466 kts | 110° |
| 2026-05-04 20:31 | 41.19569 | -76.24330 | 23476 ft | 462 kts | 109° |
| 2026-05-04 20:31 | 41.18477 | -76.20312 | 22887 ft | 459 kts | 109° |
| 2026-05-04 20:31 | 41.17403 | -76.16368 | 22294 ft | 455 kts | 110° |
| 2026-05-04 20:32 | 41.16331 | -76.12438 | 21695 ft | 452 kts | 110° |
| 2026-05-04 20:32 | 41.15270 | -76.08553 | 21108 ft | 449 kts | 110° |
| 2026-05-04 20:32 | 41.14205 | -76.04663 | 20508 ft | 445 kts | 110° |
| 2026-05-04 20:32 | 41.13153 | -76.00827 | 19900 ft | 442 kts | 110° |
| 2026-05-04 20:33 | 41.12110 | -75.97028 | 19318 ft | 439 kts | 110° |
| 2026-05-04 20:33 | 41.11079 | -75.93279 | 18735 ft | 436 kts | 110° |
| 2026-05-04 20:33 | 41.10037 | -75.89496 | 18122 ft | 433 kts | 110° |
| 2026-05-04 20:33 | 41.09022 | -75.85815 | 17539 ft | 431 kts | 110° |
| 2026-05-04 20:34 | 41.07989 | -75.82075 | 16933 ft | 429 kts | 110° |
| 2026-05-04 20:34 | 41.06967 | -75.78380 | 16336 ft | 426 kts | 110° |
| 2026-05-04 20:34 | 41.05964 | -75.74758 | 15753 ft | 424 kts | 110° |
| 2026-05-04 20:34 | 41.04945 | -75.71089 | 15131 ft | 422 kts | 110° |
| 2026-05-04 20:35 | 41.03940 | -75.67470 | 14529 ft | 420 kts | 110° |
| 2026-05-04 20:35 | 41.02946 | -75.63897 | 13921 ft | 418 kts | 110° |
| 2026-05-04 20:35 | 41.01942 | -75.60293 | 13318 ft | 415 kts | 111° |
| 2026-05-04 20:35 | 41.00943 | -75.56716 | 12729 ft | 413 kts | 110° |
| 2026-05-04 20:36 | 40.99963 | -75.53200 | 12382 ft | 402 kts | 110° |
| 2026-05-04 20:36 | 40.99017 | -75.49818 | 12165 ft | 391 kts | 111° |
| 2026-05-04 20:36 | 40.98079 | -75.46466 | 11889 ft | 386 kts | 110° |
| 2026-05-04 20:36 | 40.97159 | -75.43183 | 11604 ft | 377 kts | 110° |
| 2026-05-04 20:37 | 40.96255 | -75.39960 | 11302 ft | 369 kts | 111° |
| 2026-05-04 20:37 | 40.95371 | -75.36814 | 11023 ft | 360 kts | 110° |
| 2026-05-04 20:37 | 40.94505 | -75.33733 | 10752 ft | 353 kts | 111° |
| 2026-05-04 20:37 | 40.93663 | -75.30746 | 10500 ft | 346 kts | 111° |
| 2026-05-04 20:38 | 40.92826 | -75.27776 | 10221 ft | 339 kts | 111° |
| 2026-05-04 20:38 | 40.92009 | -75.24885 | 9960 ft | 333 kts | 111° |
| 2026-05-04 20:38 | 40.91211 | -75.22060 | 9710 ft | 327 kts | 111° |
| 2026-05-04 20:38 | 40.90418 | -75.19257 | 9423 ft | 322 kts | 111° |
| 2026-05-04 20:39 | 40.89645 | -75.16527 | 9309 ft | 312 kts | 111° |
| 2026-05-04 20:39 | 40.88878 | -75.13822 | 8960 ft | 312 kts | 111° |
| 2026-05-04 20:39 | 40.88128 | -75.11179 | 8632 ft | 310 kts | 111° |
| 2026-05-04 20:39 | 40.87379 | -75.08532 | 8366 ft | 305 kts | 111° |
| 2026-05-04 20:40 | 40.86649 | -75.05940 | 8135 ft | 300 kts | 111° |
| 2026-05-04 20:40 | 40.85928 | -75.03384 | 7899 ft | 295 kts | 111° |
| 2026-05-04 20:40 | 40.85208 | -75.00834 | 7667 ft | 291 kts | 112° |
| 2026-05-04 20:40 | 40.84509 | -74.98364 | 7441 ft | 288 kts | 111° |
| 2026-05-04 20:41 | 40.83807 | -74.95887 | 7212 ft | 287 kts | 112° |
| 2026-05-04 20:41 | 40.83115 | -74.93446 | 6989 ft | 286 kts | 112° |
| 2026-05-04 20:41 | 40.82459 | -74.90982 | 6778 ft | 284 kts | 103° |
| 2026-05-04 20:41 | 40.82437 | -74.88380 | 6681 ft | 285 kts | 76° |
| 2026-05-04 20:42 | 40.83191 | -74.85988 | 6593 ft | 284 kts | 61° |
| 2026-05-04 20:42 | 40.83956 | -74.83614 | 6487 ft | 284 kts | 70° |
| 2026-05-04 20:42 | 40.84479 | -74.81085 | 6379 ft | 282 kts | 76° |
| 2026-05-04 20:42 | 40.84890 | -74.78556 | 6274 ft | 283 kts | 77° |
| 2026-05-04 20:43 | 40.85273 | -74.76010 | 6149 ft | 283 kts | 78° |
| 2026-05-04 20:43 | 40.85648 | -74.73476 | 6021 ft | 282 kts | 78° |
| 2026-05-04 20:43 | 40.86021 | -74.70946 | 5930 ft | 282 kts | 78° |
| 2026-05-04 20:43 | 40.86397 | -74.68398 | 5835 ft | 282 kts | 79° |
| 2026-05-04 20:44 | 40.86769 | -74.65868 | 5725 ft | 281 kts | 79° |
| 2026-05-04 20:44 | 40.87144 | -74.63322 | 5618 ft | 283 kts | 79° |
| 2026-05-04 20:44 | 40.87517 | -74.60780 | 5522 ft | 275 kts | 79° |
| 2026-05-04 20:44 | 40.87868 | -74.58385 | 5456 ft | 261 kts | 79° |
| 2026-05-04 20:45 | 40.88207 | -74.56072 | 5335 ft | 254 kts | 79° |
| 2026-05-04 20:45 | 40.88538 | -74.53806 | 5215 ft | 249 kts | 79° |
| 2026-05-04 20:45 | 40.88866 | -74.51556 | 5115 ft | 247 kts | 79° |
| 2026-05-04 20:45 | 40.89194 | -74.49308 | 5056 ft | 248 kts | 79° |
| 2026-05-04 20:46 | 40.89520 | -74.47069 | 5003 ft | 248 kts | 79° |
| 2026-05-04 20:46 | 40.89840 | -74.44862 | 4922 ft | 247 kts | 79° |
| 2026-05-04 20:46 | 40.90164 | -74.42634 | 4828 ft | 246 kts | 79° |
| 2026-05-04 20:46 | 40.90485 | -74.40413 | 4733 ft | 247 kts | 79° |
| 2026-05-04 20:47 | 40.90807 | -74.38193 | 4633 ft | 245 kts | 79° |
| 2026-05-04 20:47 | 40.91131 | -74.35951 | 4536 ft | 245 kts | 79° |
| 2026-05-04 20:47 | 40.91448 | -74.33752 | 4437 ft | 245 kts | 81° |
| 2026-05-04 20:47 | 40.91768 | -74.31535 | 4338 ft | 244 kts | 80° |
| 2026-05-04 20:48 | 40.92085 | -74.29324 | 4243 ft | 243 kts | 80° |
| 2026-05-04 20:48 | 40.92401 | -74.27123 | 4147 ft | 243 kts | 80° |
| 2026-05-04 20:48 | 40.92717 | -74.24927 | 4049 ft | 243 kts | 80° |
| 2026-05-04 20:48 | 40.93032 | -74.22729 | 3955 ft | 243 kts | 80° |
| 2026-05-04 20:49 | 40.93345 | -74.20540 | 3858 ft | 243 kts | 80° |
| 2026-05-04 20:49 | 40.93651 | -74.18324 | 3755 ft | 242 kts | 84° |
| 2026-05-04 20:49 | 40.93491 | -74.16164 | 3643 ft | 235 kts | 113° |
| 2026-05-04 20:49 | 40.92646 | -74.14387 | 3539 ft | 223 kts | 141° |
| 2026-05-04 20:50 | 40.91424 | -74.13186 | 3468 ft | 217 kts | 152° |
| 2026-05-04 20:50 | 40.90134 | -74.12130 | 3386 ft | 215 kts | 154° |
| 2026-05-04 20:50 | 40.88860 | -74.11156 | 3303 ft | 207 kts | 155° |
| 2026-05-04 20:50 | 40.87633 | -74.10236 | 3221 ft | 198 kts | 156° |
| 2026-05-04 20:51 | 40.86436 | -74.09342 | 3158 ft | 193 kts | 156° |
| 2026-05-04 20:51 | 40.85277 | -74.08478 | 3079 ft | 192 kts | 156° |
| 2026-05-04 20:51 | 40.84053 | -74.07812 | 2996 ft | 186 kts | 172° |
| 2026-05-04 20:51 | 40.82798 | -74.07831 | 2749 ft | 179 kts | 204° |
| 2026-05-04 20:52 | 40.81707 | -74.08549 | 2529 ft | 172 kts | 212° |
| 2026-05-04 20:52 | 40.80661 | -74.09250 | 2317 ft | 158 kts | 210° |
| 2026-05-04 20:52 | 40.79722 | -74.09835 | 2124 ft | 142 kts | 210° |
| 2026-05-04 20:52 | 40.78833 | -74.10399 | 1953 ft | 139 kts | 210° |
| 2026-05-04 20:53 | 40.77974 | -74.10944 | 1779 ft | 137 kts | 210° |
| 2026-05-04 20:53 | 40.77114 | -74.11490 | 1604 ft | 136 kts | 210° |
| 2026-05-04 20:53 | 40.76261 | -74.12031 | 1418 ft | 135 kts | 210° |
| 2026-05-04 20:53 | 40.75410 | -74.12572 | 1242 ft | 135 kts | 210° |
| 2026-05-04 20:54 | 40.74569 | -74.13107 | 1061 ft | 135 kts | 209° |
| 2026-05-04 20:54 | 40.73718 | -74.13645 | 888 ft | 134 kts | 210° |
| 2026-05-04 20:54 | 40.72888 | -74.14172 | 712 ft | 131 kts | 210° |
| 2026-05-04 20:54 | 40.72059 | -74.14703 | 517 ft | 133 kts | 209° |
| 2026-05-04 20:55 | 40.71226 | -74.15220 | 331 ft | 133 kts | 209° |
| 2026-05-04 20:55 | 40.70397 | -74.15748 | 154 ft | 132 kts | 208° |
| 2026-05-04 20:55 | 40.69576 | -74.16267 | 38 ft | 126 kts | 208° |
| 2026-05-04 20:55 | 40.68905 | -74.16698 | 35 ft | 85 kts | 205° |
| 2026-05-04 20:56 | 40.68553 | -74.16964 | 35 ft | 39 kts | 232° |
| 2026-05-04 20:56 | 40.68467 | -74.17130 | 35 ft | 6 kts | 243° |
| 2026-05-04 20:56 | 40.68482 | -74.17155 | 35 ft | 6 kts | 349° |
| 2026-05-04 20:56 | 40.68580 | -74.17118 | 35 ft | 19 kts | 26° |
| 2026-05-04 20:57 | 40.68714 | -74.17038 | 35 ft | 21 kts | 26° |
| 2026-05-04 20:57 | 40.68845 | -74.16953 | 35 ft | 20 kts | 26° |
| 2026-05-04 20:57 | 40.68944 | -74.16891 | 35 ft | 3 kts | 26° |
| 2026-05-04 20:57 | 40.68948 | -74.16888 | 35 ft | 0 kts | 26° |
| 2026-05-04 20:59 | 40.68954 | -74.16885 | 35 ft | 2 kts | 26° |
| 2026-05-04 20:59 | 40.68990 | -74.16869 | 35 ft | 8 kts | 354° |
| 2026-05-04 20:59 | 40.69055 | -74.16972 | 35 ft | 19 kts | 297° |
| 2026-05-04 20:59 | 40.69122 | -74.17150 | 35 ft | 17 kts | 302° |
| 2026-05-04 21:00 | 40.69226 | -74.17150 | 35 ft | 17 kts | 24° |
| 2026-05-04 21:00 | 40.69353 | -74.17078 | 35 ft | 22 kts | 13° |
| 2026-05-04 21:00 | 40.69523 | -74.17083 | 35 ft | 25 kts | 348° |
| 2026-05-04 21:00 | 40.69694 | -74.17168 | 35 ft | 27 kts | 327° |
| 2026-05-04 21:01 | 40.69839 | -74.17338 | 35 ft | 27 kts | 310° |
| 2026-05-04 21:01 | 40.69906 | -74.17542 | 35 ft | 19 kts | 280° |
| 2026-05-04 21:01 | 40.69866 | -74.17645 | 35 ft | 10 kts | 247° |
| 2026-05-04 21:01 | 40.69869 | -74.17731 | 35 ft | 9 kts | 277° |
| 2026-05-04 21:02 | 40.69873 | -74.17770 | 35 ft | 1 kts | 277° |